createdAt,value
2019-02-15T00:00:35.868Z,61.6
2019-02-15T00:17:22.831Z,61.2
2019-02-15T00:34:10.332Z,61.2
2019-02-15T00:50:57.966Z,61.2
2019-02-15T01:07:45.394Z,60.8
2019-02-15T01:24:32.751Z,60.4
2019-02-15T01:41:20.026Z,60.0
2019-02-15T01:58:07.128Z,60.0
2019-02-15T02:14:54.319Z,59.6
2019-02-15T02:31:41.411Z,59.2
2019-02-15T02:48:28.420Z,59.2
2019-02-15T03:05:15.313Z,58.4
2019-02-15T03:22:02.284Z,58.4
2019-02-15T03:38:49.125Z,58.0
2019-02-15T03:55:35.712Z,58.0
2019-02-15T04:12:22.432Z,58.0
2019-02-15T04:29:09.042Z,57.6
2019-02-15T04:45:55.667Z,57.2
2019-02-15T05:02:42.223Z,57.2
2019-02-15T05:19:28.789Z,56.8
2019-02-15T05:36:15.296Z,56.8
2019-02-15T05:53:01.924Z,56.8
2019-02-15T06:09:48.503Z,56.4
2019-02-15T06:26:35.294Z,56.4
2019-02-15T06:43:21.758Z,56.0
2019-02-15T07:00:08.476Z,56.0
2019-02-15T07:16:55.125Z,54.4
2019-02-15T07:33:41.561Z,54.0
2019-02-15T07:50:27.973Z,53.6
2019-02-15T08:07:14.834Z,52.8
2019-02-15T08:24:01.784Z,52.8
2019-02-15T08:40:48.720Z,52.4
2019-02-15T08:57:36.299Z,52.4
2019-02-15T09:14:24.551Z,52.0
2019-02-15T09:31:11.641Z,51.6
2019-02-15T09:47:59.639Z,51.6
2019-02-15T10:04:47.595Z,51.2
2019-02-15T10:21:35.964Z,51.6
2019-02-15T10:38:24.495Z,51.6
2019-02-15T10:55:13.328Z,51.2
2019-02-15T11:12:02.293Z,51.2
2019-02-15T11:28:51.540Z,50.8
2019-02-15T11:45:40.967Z,50.4
2019-02-15T12:02:30.662Z,50.4
2019-02-15T12:19:20.439Z,50.0
2019-02-15T12:36:10.513Z,49.6
2019-02-15T12:53:00.566Z,49.6
2019-02-15T13:09:52.027Z,49.6
2019-02-15T13:26:41.134Z,49.6
2019-02-15T13:43:31.447Z,49.6
2019-02-15T14:00:21.881Z,49.6
2019-02-15T14:17:12.289Z,49.6
2019-02-15T14:34:04.292Z,49.6
2019-02-15T14:50:54.158Z,49.6
2019-02-15T15:07:43.343Z,50.0
2019-02-15T15:24:33.539Z,50.4
2019-02-15T15:41:23.639Z,50.4
2019-02-15T15:58:13.569Z,50.4
2019-02-15T16:15:03.554Z,50.8
2019-02-15T16:31:53.517Z,51.2
2019-02-15T16:48:44.693Z,51.2
2019-02-15T17:05:33.451Z,51.2
2019-02-15T17:22:23.079Z,51.6
2019-02-15T17:39:12.798Z,51.6
2019-02-15T17:56:02.274Z,52.0
2019-02-15T18:12:51.830Z,52.0
2019-02-15T18:29:41.411Z,52.0
2019-02-15T18:46:30.492Z,52.8
2019-02-15T19:03:19.016Z,52.4
2019-02-15T19:20:07.653Z,52.0
2019-02-15T19:36:56.324Z,53.6
2019-02-15T19:53:44.705Z,54.0
2019-02-15T20:10:33.313Z,53.6
2019-02-15T20:27:21.795Z,54.4
2019-02-15T20:44:10.211Z,54.8
2019-02-15T21:00:58.677Z,54.8
2019-02-15T21:17:47.386Z,55.2
2019-02-15T21:34:35.395Z,55.2
2019-02-15T21:51:23.481Z,55.6
2019-02-15T22:08:11.687Z,55.6
2019-02-15T22:24:59.852Z,55.6
2019-02-15T22:41:48.061Z,55.6
2019-02-15T22:58:36.086Z,55.6
2019-02-15T23:15:24.233Z,55.6
2019-02-15T23:32:12.116Z,55.6
2019-02-15T23:49:00.131Z,55.6
